TOURFACTS.DK  
Stats and Facts from Tour de France.

Tour de France 2019 starts in 320 days
  Riders   Stages   Teams   Summits   Yearly  


 
Search by year

After 2018 - Stage 21:
 15000 starters.
  5165 different riders.
  638 teams.
  2253 stages.
  456 restdays.
  442940.60 km.
  5684 abandonnees.


Top 3
GC
Geraint Thomas83:17:13
Tom Dumoulin83:19:04
Christopher Froome83:19:37
Climb
Julian Alaphilippe170 pt.
Warren Barguil91 pt.
Rafal Majka76 pt.
Sprint
Peter Sagan477 pt.
Alexander Kristoff246 pt.
Arnaud Démare203 pt.
Youth
Pierre-Roger Latou..83:39:26
Egan Bernal83:45:05
Guillaume Martin84:01:31
Facts from Tour de France 2017
  |   Stages.  |   Stage winners.  |   Days in yellow  |   Average speed.  |   Route.  |   Teams.  |   All riders.  |   Rookies.  |  

  |   Withdrawls.  |   GC.  |   Polka  |   Green  |   White  |   Summits. (In tour)  |   Miscellaneous.  |  

Stage 14 on 15 - 07 - 2017
         Owning:    Christopher Froome      Warren Barguil      Marcel Kittel      Simon Yates  

Pick a stage:  1 2 3 4 5 6 7 8 9 10 11 12 13 14 15 16 17 18 19 20 21
  BlagnacRodez | Dist: 181.50 km.
Cat: 3Côte du viaduc du ViaurBELThomas De Gendt2 points 
Cat: 3Côte de CentrèsBELThomas De Gendt2 points 

Average speed for all riders in stage:  40,669 km./hr.
    Place:Name:Team:Time:Km/h:
1
AUSMichael MatthewsDEUTeam Sunweb04:21:56  +  00:00:00=41,575 
2
BELGreg Van AvermaetUSABMC Racing Team04:21:56  +  00:00:00=41,575 
3
NOREdvald Boasson HagenZAFDimension Data04:21:57  +  00:00:01=41,573 
44 BELPhilippe GilbertBELQuick-Step Floors04:21:57  +  00:00:01=41,573 
55 AUSJay McCarthyDEUBora–Hansgrohe04:21:57  +  00:00:01=41,573 
66 ITASonny ColbrelliBHRBahrain-Merida04:21:57  +  00:00:01=41,573 
77 KENChristopher FroomeGBRSky Procycling04:21:57  +  00:00:01=41,573 
88 ENGDaniel MartinBELQuick-Step Floors04:21:57  +  00:00:01=41,573 
99 COLRigoberto UránUSACannondale-Drapac Pro Cycling ..04:21:57  +  00:00:01=41,573 
1010 BELTiesj BenootBELLotto Soudal04:22:01  +  00:00:05=41,562 
1111 FRARomain BardetFRAAg2r La Mondiale04:22:01  +  00:00:05=41,562 
1212 CZEZdenek StybarBELQuick-Step Floors04:22:01  +  00:00:05=41,562 
1313 ENGSimon YatesAUSOrica - Scott04:22:01  +  00:00:05=41,562 
1414 BELJan BakelantsFRAAg2r La Mondiale04:22:01  +  00:00:05=41,562 
1515 GERPaul MartensNLDTeam Lotto NL - Jumbo04:22:01  +  00:00:05=41,562 
1616 ITADavide CimolaiFRAFDJ04:22:08  +  00:00:12=41,544 
1717 FRANacer BouhanniFRACofidis – Solutions Crédits04:22:08  +  00:00:12=41,544 
1818 AUSSimon ClarkeUSACannondale-Drapac Pro Cycling ..04:22:08  +  00:00:12=41,544 
1919 ITAMarco MarcatoUAEUAE Team Emirates04:22:11  +  00:00:15=41,536 
2020 ESPMikel Landa MeanaGBRSky Procycling04:22:11  +  00:00:15=41,536 
2121 FRALilian CalmejaneFRADirect Energie04:22:16  +  00:00:20=41,523 
2222 ITADamiano CarusoUSABMC Racing Team04:22:16  +  00:00:20=41,523 
2323 COLNairo QuintanaESPMovistar Team04:22:18  +  00:00:22=41,517 
2424 ESPAlberto ContadorUSATrek - Segafredo04:22:18  +  00:00:22=41,517 
2525 NZLGeorge BennettNLDTeam Lotto NL - Jumbo04:22:18  +  00:00:22=41,517 
2626 BELOliver NaesenFRAAg2r La Mondiale04:22:21  +  00:00:25=41,509 
2727 GERGianluca BrambillaBELQuick-Step Floors04:22:21  +  00:00:25=41,509 
2828 RSALouis MeintjesUAEUAE Team Emirates04:22:21  +  00:00:25=41,509 
2929 GEREmanuel BuchmannDEUBora–Hansgrohe04:22:21  +  00:00:25=41,509 
3030 ITAFabio AruKAZAstana Pro Team04:22:21  +  00:00:25=41,509 
3131 FRAAlexis VuillermozFRAAg2r La Mondiale04:22:21  +  00:00:25=41,509 
3232 RSADaryl ImpeyAUSOrica - Scott04:22:21  +  00:00:25=41,509 
3333 FRALaurent PichonFRAFortuneo - Vital Concept04:22:21  +  00:00:25=41,509 
3434 FRASylvain ChavanelFRADirect Energie04:22:21  +  00:00:25=41,509 
3535 FRARomain HardyFRAFortuneo - Vital Concept04:22:21  +  00:00:25=41,509 
3636 GERJohn DegenkolbUSATrek - Segafredo04:22:26  +  00:00:30=41,496 
3737 COLCarlos Alberto BetancurESPMovistar Team04:22:26  +  00:00:30=41,496 
3838 COLSergio Luis HenaoGBRSky Procycling04:22:26  +  00:00:30=41,496 
3939 FRAPierre-Roger LatourFRAAg2r La Mondiale04:22:26  +  00:00:30=41,496 
4040 NEDMarco MinnaardBELWanty – Groupe Gobert04:22:26  +  00:00:30=41,496 
4141 FRAGuillaume MartinBELWanty – Groupe Gobert04:22:29  +  00:00:33=41,488 
4242 NORAlexander KristoffCHETeam Katusha - Alpecin04:22:29  +  00:00:33=41,488 
4343 FRAAngelo TulikFRADirect Energie04:22:29  +  00:00:33=41,488 
4444 FRATony GallopinBELLotto Soudal04:22:39  +  00:00:43=41,462 
4545 FRABrice FeilluFRAFortuneo - Vital Concept04:22:43  +  00:00:47=41,452 
4646 BELSerge PauwelsZAFDimension Data04:22:43  +  00:00:47=41,452 
4747 ENGBen SwiftUAEUAE Team Emirates04:22:45  +  00:00:49=41,446 
4848 BELFrederik BackaertBELWanty – Groupe Gobert04:22:48  +  00:00:52=41,438 
4949 POLPawel PoljanskiDEUBora–Hansgrohe04:22:48  +  00:00:52=41,438 
5050 NEDBauke MollemaUSATrek - Segafredo04:22:48  +  00:00:52=41,438 
5151 GERNikias ArndtDEUTeam Sunweb04:22:48  +  00:00:52=41,438 
5252 FRAWarren BarguilDEUTeam Sunweb04:22:48  +  00:00:52=41,438 
5353 NZLDion SmithBELWanty – Groupe Gobert04:22:48  +  00:00:52=41,438 
5454 AUSAdam HansenBELLotto Soudal04:22:48  +  00:00:52=41,438 
5555 BELJulien VermoteBELQuick-Step Floors04:22:53  +  00:00:57=41,425 
5656 FRACyril GautierFRAAg2r La Mondiale04:22:55  +  00:00:59=41,420 
5757 SUIMathias FrankFRAAg2r La Mondiale04:22:55  +  00:00:59=41,420 
5858 BELJens KeukeleireAUSOrica - Scott04:23:06  +  00:01:10=41,391 
5959 GERNils PolittCHETeam Katusha - Alpecin04:23:06  +  00:01:10=41,391 
6060 ITADiego UlissiUAEUAE Team Emirates04:23:06  +  00:01:10=41,391 
6161 GERMarcus BurghardtDEUBora–Hansgrohe04:23:06  +  00:01:10=41,391 
6262 KAZAndrey ZeitsKAZAstana Pro Team04:23:10  +  00:01:14=41,381 
6363 FRAMaxime BouetFRAFortuneo - Vital Concept04:23:11  +  00:01:15=41,378 
6464 USANathan BrownUSACannondale-Drapac Pro Cycling ..04:23:11  +  00:01:15=41,378 
6565 BELThomas DegandBELWanty – Groupe Gobert04:23:11  +  00:01:15=41,378 
6666 LUXBen GastauerFRAAg2r La Mondiale04:23:11  +  00:01:15=41,378 
6767 FRAAxel DomontFRAAg2r La Mondiale04:23:11  +  00:01:15=41,378 
6868 ESPHaimar ZubeldiaUSATrek - Segafredo04:23:11  +  00:01:15=41,378 
6969 COLDarwin AtapumaUAEUAE Team Emirates04:23:11  +  00:01:15=41,378 
7070 ESPMikel NieveGBRSky Procycling04:23:11  +  00:01:15=41,378 
7171 PORTiago PintoCHETeam Katusha - Alpecin04:23:11  +  00:01:15=41,378 
7272 FRAThibaut PinotFRAFDJ04:23:18  +  00:01:22=41,360 
7373 ITADaniele BennatiESPMovistar Team04:23:21  +  00:01:25=41,352 
7474 FRAPierre-Luc PérichonFRAFortuneo - Vital Concept04:23:23  +  00:01:27=41,347 
7575 FRARudy MolardFRAFDJ04:23:28  +  00:01:32=41,334 
7676 FRAOlivier Le GacFRAFDJ04:23:30  +  00:01:34=41,328 
7777 POLMaciej BodnarDEUBora–Hansgrohe04:23:30  +  00:01:34=41,328 
7878 GERTony MartinCHETeam Katusha - Alpecin04:23:30  +  00:01:34=41,328 
7979 NEDKoen De KortUSATrek - Segafredo04:23:30  +  00:01:34=41,328 
8080 CZERoman KreuzigerAUSOrica - Scott04:23:30  +  00:01:34=41,328 
8181 HRVRobert KiserlovskiCHETeam Katusha - Alpecin04:23:39  +  00:01:43=41,305 
8282 HRVKristijan DurasekUAEUAE Team Emirates04:23:39  +  00:01:43=41,305 
8383 SUIMichael AlbasiniAUSOrica - Scott04:23:41  +  00:01:45=41,300 
8484 COLJohan Esteban ChavesAUSOrica - Scott04:23:53  +  00:01:57=41,268 
8585 POLMichal KwiatkowskiGBRSky Procycling04:23:55  +  00:01:59=41,263 
8686 ENGScott ThwaitesZAFDimension Data04:23:59  +  00:02:03=41,253 
8787 SUIMichael SchärUSABMC Racing Team04:23:59  +  00:02:03=41,253 
8888 FRAChristophe LaporteFRACofidis – Solutions Crédits04:24:02  +  00:02:06=41,245 
8989 NZLJack BauerBELQuick-Step Floors04:24:14  +  00:02:18=41,214 
9090 BELThomas De GendtBELLotto Soudal04:24:14  +  00:02:18=41,214 
9191 DENMichael ValgrenKAZAstana Pro Team04:24:14  +  00:02:18=41,214 
9292 RSAReinardt Janse Van RensburgZAFDimension Data04:24:19  +  00:02:23=41,201 
9393 ETHTsgabu Gebremaryan GrmayBHRBahrain-Merida04:24:22  +  00:02:26=41,193 
9494 SUIStefan KüngUSABMC Racing Team04:24:23  +  00:02:27=41,190 
9595 FRACyril LemoineFRACofidis – Solutions Crédits04:24:27  +  00:02:31=41,180 
9696 NEDMaurits LammertinkCHETeam Katusha - Alpecin04:24:42  +  00:02:46=41,141 
9797 CRCAndrey AmadorESPMovistar Team04:25:00  +  00:03:04=41,094 
9898 ITAAlberto BettiolUSACannondale-Drapac Pro Cycling ..04:25:05  +  00:03:09=41,081 
9999 ESPJesus HerradaESPMovistar Team04:25:05  +  00:03:09=41,081 
100100 BLRVasil KiryienkaGBRSky Procycling04:25:15  +  00:03:19=41,056 
101101 RSAJaco VenterZAFDimension Data04:27:22  +  00:05:26=40,731 
102102 SUIReto HollensteinCHETeam Katusha - Alpecin04:28:00  +  00:06:04=40,634 
103103 GERSimon GeschkeDEUTeam Sunweb04:28:24  +  00:06:28=40,574 
104104 SUIDanilo WyssUSABMC Racing Team04:28:24  +  00:06:28=40,574 
105105 NEDTimo RoosenNLDTeam Lotto NL - Jumbo04:28:24  +  00:06:28=40,574 
106106 FRAFlorian VachonFRAFortuneo - Vital Concept04:28:24  +  00:06:28=40,574 
107107 WALLuke RoweGBRSky Procycling04:28:24  +  00:06:28=40,574 
108108 SLOJanez BrajkovicBHRBahrain-Merida04:28:24  +  00:06:28=40,574 
109109 KAZAlexey LutsenkoKAZAstana Pro Team04:28:24  +  00:06:28=40,574 
110110 NEDTom LeezerNLDTeam Lotto NL - Jumbo04:28:24  +  00:06:28=40,574 
111111 FRAThomas VoecklerFRADirect Energie04:28:24  +  00:06:28=40,574 
112112 FRANicolas RocheUSABMC Racing Team04:28:24  +  00:06:28=40,574 
113113 FRAYohann GèneFRADirect Energie04:28:24  +  00:06:28=40,574 
114114 FRAThomas BoudatFRADirect Energie04:28:53  +  00:06:57=40,501 
115115 NEDDylan Van BaarleUSACannondale-Drapac Pro Cycling ..04:29:56  +  00:08:00=40,343 
116116 NEDLaurens ten DamDEUTeam Sunweb04:33:01  +  00:11:05=39,888 
117117 NEDMike TeunissenDEUTeam Sunweb04:33:01  +  00:11:05=39,888 
118118 JPNYukiya ArashiroBHRBahrain-Merida04:33:59  +  00:12:03=39,747 
119119 ESPMarkel IrizarUSATrek - Segafredo04:33:59  +  00:12:03=39,747 
120120 FRAJulien SimonFRACofidis – Solutions Crédits04:33:59  +  00:12:03=39,747 
121121 ITAAlessandro De MarchiUSABMC Racing Team04:34:12  +  00:12:16=39,716 
122122 GERAndré GreipelBELLotto Soudal04:35:13  +  00:13:17=39,569 
123123 NEDRamon SinkeldamDEUTeam Sunweb04:35:13  +  00:13:17=39,569 
124124 AUTBernhard EiselZAFDimension Data04:35:13  +  00:13:17=39,569 
125125 GERMarcel SiebergBELLotto Soudal04:35:13  +  00:13:17=39,569 
126126 FRAAdrien PetitFRADirect Energie04:35:13  +  00:13:17=39,569 
127127 BELGuillaume Van KeirsbulckBELWanty – Groupe Gobert04:35:13  +  00:13:17=39,569 
128128 GERJasha SütterlinESPMovistar Team04:35:13  +  00:13:17=39,569 
129129 GERRick ZabelCHETeam Katusha - Alpecin04:35:13  +  00:13:17=39,569 
130130 NZLPaddy BevinUSACannondale-Drapac Pro Cycling ..04:35:13  +  00:13:17=39,569 
131131 DDRRüdiger SeligDEUBora–Hansgrohe04:35:13  +  00:13:17=39,569 
132132 DENLars BakBELLotto Soudal04:35:13  +  00:13:17=39,569 
133133 ITAFabio SabatiniBELQuick-Step Floors04:35:13  +  00:13:17=39,569 
134134 ITAMatteo BonoUAEUAE Team Emirates04:35:13  +  00:13:17=39,569 
135135 ESPLuis Angel MateFRACofidis – Solutions Crédits04:35:13  +  00:13:17=39,569 
136136 GERRobert WagnerNLDTeam Lotto NL - Jumbo04:35:13  +  00:13:17=39,569 
137137 NEDRoy CurversDEUTeam Sunweb04:35:13  +  00:13:17=39,569 
138138 FRANicolas EdetFRACofidis – Solutions Crédits04:35:13  +  00:13:17=39,569 
139139 NORVegard Stake LaengenUAEUAE Team Emirates04:35:13  +  00:13:17=39,569 
140140 AUSDamien HowsonAUSOrica - Scott04:35:13  +  00:13:17=39,569 
141141 SLOPrimoz RoglicNLDTeam Lotto NL - Jumbo04:35:13  +  00:13:17=39,569 
142142 ESPImanol ErvitiESPMovistar Team04:35:13  +  00:13:17=39,569 
143143 ESPJonathan CastroviejoESPMovistar Team04:35:13  +  00:13:17=39,569 
144144 FRAYoann OffredoBELWanty – Groupe Gobert04:35:13  +  00:13:17=39,569 
145145 FRAElie GesbertFRAFortuneo - Vital Concept04:35:13  +  00:13:17=39,569 
146146 ESPJavier Moreno BazánBHRBahrain-Merida04:35:13  +  00:13:17=39,569 
147147 ARGEduardo SepulvedaFRAFortuneo - Vital Concept04:35:13  +  00:13:17=39,569 
148148 GERChristian KneesGBRSky Procycling04:35:13  +  00:13:17=39,569 
149149 ESPDaniel NavarroFRACofidis – Solutions Crédits04:35:13  +  00:13:17=39,569 
150150 UKRAndriy GrivkoKAZAstana Pro Team04:35:13  +  00:13:17=39,569 
151151 FRAPerrig QuemeneurFRADirect Energie04:35:13  +  00:13:17=39,569 
152152 FRAFlorian SénéchalFRACofidis – Solutions Crédits04:35:13  +  00:13:17=39,569 
153153 BELDimitri ClaeysFRACofidis – Solutions Crédits04:35:13  +  00:13:17=39,569 
154154 CZEOndrej CinkBHRBahrain-Merida04:35:13  +  00:13:17=39,569 
155155 ITAAndrea PasqualonBELWanty – Groupe Gobert04:35:13  +  00:13:17=39,569 
156156 BELJürgen RoelandtsBELLotto Soudal04:35:13  +  00:13:17=39,569 
157157 SLOGrega BoleBHRBahrain-Merida04:35:13  +  00:13:17=39,569 
158158 AUTMichael GoglUSATrek - Segafredo04:35:13  +  00:13:17=39,569 
159159 COLJarlinson Pantano GomezUSATrek - Segafredo04:35:13  +  00:13:17=39,569 
160160 KAZBakhtiyar KozhatayevKAZAstana Pro Team04:35:13  +  00:13:17=39,569 
161161 NEDDylan GroenewegenNLDTeam Lotto NL - Jumbo04:35:13  +  00:13:17=39,569 
162162 USAAndrew TalanskyUSACannondale-Drapac Pro Cycling ..04:35:13  +  00:13:17=39,569 
163163 FRARomain SicardFRADirect Energie04:35:13  +  00:13:17=39,569 
164164 FRAAmaël MoinardUSABMC Racing Team04:35:13  +  00:13:17=39,569 
165165 AUTMarco HallerCHETeam Katusha - Alpecin04:35:13  +  00:13:17=39,569 
166166 NEDAlbert TimmerDEUTeam Sunweb04:35:13  +  00:13:17=39,569 
167167 FRAPierre RollandUSACannondale-Drapac Pro Cycling ..04:35:13  +  00:13:17=39,569 
168168 AUSMathew HaymanAUSOrica - Scott04:35:13  +  00:13:17=39,569 
169169 ENGStephen CummingsZAFDimension Data04:35:13  +  00:13:17=39,569 
170170 GERMarcel KittelBELQuick-Step Floors04:35:13  +  00:13:17=39,569 
171171 KAZDmitriy GruzdevKAZAstana Pro Team04:35:13  +  00:13:17=39,569 
172172 BELPieter VanspeybrouckBELWanty – Groupe Gobert04:35:13  +  00:13:17=39,569 
173173 SLOBorut BozicBHRBahrain-Merida04:35:13  +  00:13:17=39,569 
174174 USATaylor PhinneyUSACannondale-Drapac Pro Cycling ..04:35:13  +  00:13:17=39,569 
175175 ENGDaniel McLayFRAFortuneo - Vital Concept04:46:09  +  00:24:13=38,057 
176176 BELTim WellensBELLotto Soudal04:50:50  +  00:28:54=37,444 

Withdrawls: 1
 
Rider
Team
Reason
34  ITAFabio FellineUSATrek - SegafredoDid not finish
Todays birthdays.

1878  Jean Novo
1883  Jules Chabas
1890  Ange Aubry
1893  Roger Marye
1913  Paul Maye
1914  Lucien Vlaemynck
1915  Alphonse Antoine
1932  Rolf Graf
1953  Julio Rubiano
1959  Jos Haex
1959  Gerard Veldscholten
1963  Pablo Moreno
1964  Juan Castillo
1977  Iban Mayo
1994  Fernando Gaviria